createdAt,value
2019-02-04T00:01:22.564Z,28.40
2019-02-04T00:04:11.714Z,32.28
2019-02-04T00:07:00.856Z,31.80
2019-02-04T00:09:49.352Z,29.15
2019-02-04T00:12:37.550Z,29.95
2019-02-04T00:15:26.286Z,30.65
2019-02-04T00:18:15.055Z,28.37
2019-02-04T00:21:03.590Z,26.50
2019-02-04T00:23:52.565Z,31.10
2019-02-04T00:26:51.364Z,33.30
2019-02-04T00:29:32.238Z,30.00
2019-02-04T00:32:20.882Z,27.22
2019-02-04T00:35:10.397Z,29.35
2019-02-04T00:37:58.684Z,27.50
2019-02-04T00:40:48.027Z,26.70
2019-02-04T00:43:36.388Z,28.35
2019-02-04T00:46:25.275Z,29.57
2019-02-04T00:49:13.642Z,31.48
2019-02-04T00:52:01.790Z,31.82
2019-02-04T00:54:50.898Z,29.67
2019-02-04T00:57:39.069Z,29.80
2019-02-04T01:00:29.257Z,28.77
2019-02-04T01:03:18.416Z,30.23
2019-02-04T01:06:06.971Z,29.65
2019-02-04T01:08:56.038Z,28.62
2019-02-04T01:11:44.916Z,28.38
2019-02-04T01:14:34.015Z,27.37
2019-02-04T01:17:22.085Z,25.27
2019-02-04T01:20:11.775Z,27.87
2019-02-04T01:23:00.485Z,26.33
2019-02-04T01:25:49.527Z,30.43
2019-02-04T01:28:38.218Z,26.40
2019-02-04T01:31:26.931Z,26.97
2019-02-04T01:34:15.325Z,25.05
2019-02-04T01:37:04.366Z,27.85
2019-02-04T01:39:52.799Z,25.02
2019-02-04T01:42:41.331Z,25.05
2019-02-04T01:45:29.354Z,25.95
2019-02-04T01:48:18.219Z,26.40
2019-02-04T01:51:06.471Z,25.55
2019-02-04T01:53:54.679Z,26.20
2019-02-04T01:56:43.703Z,25.73
2019-02-04T01:59:32.307Z,27.25
2019-02-04T02:02:20.744Z,27.52
2019-02-04T02:05:09.248Z,24.65
2019-02-04T02:07:58.319Z,26.62
2019-02-04T02:10:47.235Z,26.50
2019-02-04T02:13:36.338Z,25.48
2019-02-04T02:16:24.919Z,27.13
2019-02-04T02:19:14.089Z,30.30
2019-02-04T02:22:02.405Z,26.97
2019-02-04T02:24:51.362Z,28.32
2019-02-04T02:27:40.429Z,27.00
2019-02-04T02:30:31.194Z,26.37
2019-02-04T02:33:20.515Z,26.40
2019-02-04T02:36:09.216Z,26.33
2019-02-04T02:38:58.197Z,29.90
2019-02-04T02:41:46.848Z,27.67
2019-02-04T02:44:35.860Z,28.15
2019-02-04T02:47:24.556Z,25.83
2019-02-04T02:50:14.295Z,28.57
2019-02-04T02:53:02.649Z,25.65
2019-02-04T02:55:51.540Z,27.98
2019-02-04T02:58:39.965Z,28.23
2019-02-04T03:01:28.974Z,27.60
2019-02-04T03:04:17.158Z,28.17
2019-02-04T03:07:05.711Z,32.55
2019-02-04T03:09:53.913Z,31.75
2019-02-04T03:12:42.479Z,29.07
2019-02-04T03:15:30.972Z,33.55
2019-02-04T03:18:19.057Z,29.63
2019-02-04T03:21:08.517Z,32.45
2019-02-04T03:24:00.641Z,30.00
2019-02-04T03:26:47.363Z,30.60
2019-02-04T03:29:36.430Z,32.23
2019-02-04T03:32:25.202Z,28.07
2019-02-04T03:35:13.349Z,29.10
2019-02-04T03:38:02.662Z,29.50
2019-02-04T03:40:51.346Z,27.00
2019-02-04T03:43:39.798Z,26.95
2019-02-04T03:46:28.231Z,31.17
2019-02-04T03:49:17.153Z,29.60
2019-02-04T03:52:06.372Z,26.63
2019-02-04T03:54:54.750Z,27.70
2019-02-04T03:57:45.595Z,27.95
2019-02-04T04:00:36.155Z,28.20
2019-02-04T04:03:24.757Z,29.80
2019-02-04T04:06:13.507Z,26.17
2019-02-04T04:09:02.295Z,26.65
2019-02-04T04:11:50.938Z,27.95
2019-02-04T04:14:38.982Z,28.38
2019-02-04T04:17:27.528Z,28.03
2019-02-04T04:20:16.519Z,25.00
2019-02-04T04:23:05.113Z,26.57
2019-02-04T04:25:53.480Z,27.90
2019-02-04T04:28:41.876Z,26.57
2019-02-04T04:31:31.288Z,30.10
2019-02-04T04:34:20.107Z,28.70
2019-02-04T04:37:08.948Z,27.45
2019-02-04T04:39:57.553Z,27.50
2019-02-04T04:42:46.174Z,28.83
2019-02-04T04:45:35.321Z,25.57
2019-02-04T04:48:26.722Z,30.05
2019-02-04T04:51:13.928Z,31.17
2019-02-04T04:54:02.963Z,30.70
2019-02-04T04:56:51.922Z,27.80
2019-02-04T04:59:40.656Z,28.53
2019-02-04T05:02:29.823Z,29.50
2019-02-04T05:05:18.719Z,28.60
2019-02-04T05:08:07.662Z,27.15
2019-02-04T05:10:55.804Z,26.73
2019-02-04T05:13:44.115Z,27.20
2019-02-04T05:16:32.566Z,28.75
2019-02-04T05:19:21.588Z,26.95
2019-02-04T05:22:10.331Z,26.48
2019-02-04T05:24:58.572Z,28.47
2019-02-04T05:27:47.555Z,28.07
2019-02-04T05:30:36.004Z,24.87
2019-02-04T05:33:25.266Z,29.77
2019-02-04T05:36:14.993Z,29.45
2019-02-04T05:39:05.151Z,28.27
2019-02-04T05:41:53.752Z,30.27
2019-02-04T05:44:42.331Z,29.48
2019-02-04T05:47:31.263Z,28.87
2019-02-04T05:50:20.364Z,26.97
2019-02-04T05:53:08.538Z,27.50
2019-02-04T05:55:57.630Z,29.87
2019-02-04T05:58:46.436Z,28.35
2019-02-04T06:01:34.941Z,32.67
2019-02-04T06:04:23.896Z,31.37
2019-02-04T06:07:15.380Z,31.70
2019-02-04T06:10:03.062Z,28.35
2019-02-04T06:12:52.422Z,28.23
2019-02-04T06:15:41.388Z,29.27
2019-02-04T06:18:30.090Z,30.50
2019-02-04T06:21:18.756Z,28.83
2019-02-04T06:24:07.434Z,29.32
2019-02-04T06:26:56.582Z,28.65
2019-02-04T06:29:45.447Z,31.87
2019-02-04T06:32:34.688Z,29.35
2019-02-04T06:35:24.183Z,29.63
2019-02-04T06:38:12.470Z,26.15
2019-02-04T06:41:01.122Z,27.70
2019-02-04T06:43:50.145Z,28.62
2019-02-04T06:46:39.090Z,27.82
2019-02-04T06:49:28.239Z,27.48
2019-02-04T06:52:17.365Z,27.32
2019-02-04T06:55:09.093Z,30.00
2019-02-04T06:57:59.420Z,24.40
2019-02-04T07:00:47.966Z,28.45
2019-02-04T07:03:36.446Z,26.73
2019-02-04T07:06:24.646Z,32.88
2019-02-04T07:09:13.239Z,32.80
2019-02-04T07:12:01.875Z,32.95
2019-02-04T07:14:50.622Z,30.30
2019-02-04T07:17:39.618Z,28.77
2019-02-04T07:20:28.812Z,31.68
2019-02-04T07:23:17.582Z,24.90
2019-02-04T07:26:06.287Z,28.60
2019-02-04T07:28:54.547Z,30.15
2019-02-04T07:31:43.484Z,24.25
2019-02-04T07:34:32.496Z,27.82
2019-02-04T07:37:20.803Z,31.55
2019-02-04T07:40:16.128Z,27.02
2019-02-04T07:43:04.522Z,31.13
2019-02-04T07:45:53.662Z,27.10
2019-02-04T07:48:42.602Z,28.73
2019-02-04T07:51:31.137Z,29.02
2019-02-04T07:54:19.787Z,27.07
2019-02-04T07:57:09.073Z,30.85
2019-02-04T07:59:57.363Z,28.05
2019-02-04T08:02:46.087Z,27.50
2019-02-04T08:05:35.014Z,26.42
2019-02-04T08:08:23.423Z,26.27
2019-02-04T08:11:12.215Z,29.63
2019-02-04T08:14:00.829Z,28.45
2019-02-04T08:16:50.368Z,27.00
2019-02-04T08:19:46.779Z,27.50
2019-02-04T08:22:29.363Z,29.60
2019-02-04T08:25:18.894Z,24.25
2019-02-04T08:28:08.363Z,26.68
2019-02-04T08:30:56.739Z,26.10
2019-02-04T08:33:45.249Z,24.75
2019-02-04T08:36:43.542Z,24.25
2019-02-04T08:39:23.887Z,25.02
2019-02-04T08:42:12.936Z,25.40
2019-02-04T08:45:01.613Z,23.15
2019-02-04T08:47:50.627Z,23.80
2019-02-04T08:50:38.741Z,24.37
2019-02-04T08:53:27.251Z,28.00
2019-02-04T08:56:16.295Z,24.05
2019-02-04T08:59:04.951Z,23.70
2019-02-04T09:01:53.135Z,23.13
2019-02-04T09:04:41.575Z,26.62
2019-02-04T09:07:30.098Z,24.50
2019-02-04T09:10:21.442Z,22.02
2019-02-04T09:13:11.020Z,23.18
2019-02-04T09:15:59.791Z,20.10
2019-02-04T09:18:47.775Z,23.60
2019-02-04T09:21:36.620Z,21.70
2019-02-04T09:24:25.264Z,23.02
2019-02-04T09:27:14.322Z,22.58
2019-02-04T09:30:02.430Z,20.88
2019-02-04T09:32:51.311Z,18.17
2019-02-04T09:35:39.967Z,20.23
2019-02-04T09:38:28.864Z,20.12
2019-02-04T09:41:17.375Z,21.57
2019-02-04T09:44:05.949Z,24.23
2019-02-04T09:46:54.907Z,22.70
2019-02-04T09:49:43.889Z,23.43
2019-02-04T09:52:32.557Z,20.62
2019-02-04T09:55:26.930Z,21.17
2019-02-04T09:58:15.566Z,20.12
2019-02-04T10:01:04.536Z,19.48
2019-02-04T10:03:53.501Z,20.97
2019-02-04T10:06:42.370Z,19.92
2019-02-04T10:09:30.755Z,18.92
2019-02-04T10:12:19.383Z,16.82
2019-02-04T10:15:12.309Z,15.03
2019-02-04T10:18:02.249Z,15.18
2019-02-04T10:20:51.369Z,16.23
2019-02-04T10:23:40.238Z,14.87
2019-02-04T10:26:28.625Z,14.90
2019-02-04T10:29:17.658Z,15.10
2019-02-04T10:32:06.208Z,15.90
2019-02-04T10:34:54.671Z,15.32
2019-02-04T10:37:43.216Z,12.70
2019-02-04T10:40:32.338Z,12.93
2019-02-04T10:43:20.760Z,13.90
2019-02-04T10:46:10.224Z,12.90
2019-02-04T10:48:59.495Z,13.40
2019-02-04T10:51:47.998Z,16.50
2019-02-04T10:54:36.721Z,14.95
2019-02-04T10:57:25.931Z,14.90
2019-02-04T11:00:17.530Z,15.30
2019-02-04T11:03:06.236Z,15.32
2019-02-04T11:05:54.909Z,16.50
2019-02-04T11:08:43.627Z,15.40
2019-02-04T11:11:32.389Z,14.60
2019-02-04T11:14:21.287Z,16.15
2019-02-04T11:17:10.890Z,15.18
2019-02-04T11:19:59.318Z,15.40
2019-02-04T11:22:48.113Z,15.85
2019-02-04T11:25:37.664Z,14.60
2019-02-04T11:28:26.295Z,13.95
2019-02-04T11:31:14.959Z,14.53
2019-02-04T11:34:04.061Z,14.25
2019-02-04T11:36:53.259Z,12.90
2019-02-04T11:39:41.459Z,13.53
2019-02-04T11:42:29.917Z,12.70
2019-02-04T11:45:18.241Z,13.30
2019-02-04T11:48:09.659Z,11.00
2019-02-04T11:51:08.920Z,12.95
2019-02-04T11:53:48.680Z,12.53
2019-02-04T11:56:37.461Z,11.63
2019-02-04T11:59:26.416Z,11.80
2019-02-04T12:02:15.539Z,12.07
2019-02-04T12:05:04.687Z,11.30
2019-02-04T12:07:53.025Z,10.60
2019-02-04T12:10:50.091Z,14.07
2019-02-04T12:13:39.598Z,12.73
2019-02-04T12:16:28.050Z,11.13
2019-02-04T12:19:16.196Z,12.77
2019-02-04T12:22:05.277Z,13.00
2019-02-04T12:24:53.614Z,13.03
2019-02-04T12:27:42.574Z,10.57
2019-02-04T12:30:37.251Z,11.83
2019-02-04T12:33:25.556Z,10.00
2019-02-04T12:36:14.172Z,10.00
2019-02-04T12:39:04.029Z,9.50
2019-02-04T12:41:52.602Z,11.70
2019-02-04T12:44:40.777Z,11.80
2019-02-04T12:47:29.901Z,12.40
2019-02-04T12:50:18.056Z,11.03
2019-02-04T12:53:06.933Z,13.80
2019-02-04T12:55:55.510Z,12.95
2019-02-04T12:58:55.087Z,14.25
2019-02-04T13:01:34.310Z,14.33
2019-02-04T13:04:23.229Z,15.78
2019-02-04T13:07:12.103Z,14.60
2019-02-04T13:10:00.263Z,17.20
2019-02-04T13:12:48.363Z,14.43
2019-02-04T13:15:37.214Z,15.40
2019-02-04T13:18:26.194Z,15.10
2019-02-04T13:21:15.124Z,13.38
2019-02-04T13:24:04.294Z,13.58
2019-02-04T13:26:53.056Z,13.15
2019-02-04T13:29:42.332Z,13.30
2019-02-04T13:32:31.836Z,13.83
2019-02-04T13:35:21.019Z,13.55
2019-02-04T13:38:09.497Z,13.18
2019-02-04T13:41:07.483Z,14.70
2019-02-04T13:43:48.002Z,12.43
2019-02-04T13:46:36.610Z,14.40
2019-02-04T13:49:25.302Z,13.78
2019-02-04T13:52:15.347Z,12.50
2019-02-04T13:55:05.823Z,12.43
2019-02-04T13:57:54.647Z,13.10
2019-02-04T14:00:43.351Z,12.03
2019-02-04T14:03:32.043Z,12.78
2019-02-04T14:06:20.732Z,13.35
2019-02-04T14:09:22.079Z,13.32
2019-02-04T14:12:10.467Z,14.28
2019-02-04T14:14:59.575Z,13.13
2019-02-04T14:17:48.035Z,13.93
2019-02-04T14:20:37.253Z,13.95
2019-02-04T14:23:27.493Z,13.43
2019-02-04T14:26:15.699Z,13.60
2019-02-04T14:29:04.184Z,14.90
2019-02-04T14:31:53.315Z,14.30
2019-02-04T14:34:42.245Z,15.83
2019-02-04T14:37:31.132Z,13.15
2019-02-04T14:40:19.683Z,13.75
2019-02-04T14:43:42.149Z,13.20
2019-02-04T14:46:53.148Z,14.45
2019-02-04T14:50:15.376Z,14.83
2019-02-04T14:53:36.896Z,16.05
2019-02-04T14:56:57.323Z,15.35
2019-02-04T14:59:51.858Z,14.90
2019-02-04T15:03:19.656Z,12.77
2019-02-04T15:06:34.947Z,12.37
2019-02-04T15:09:55.514Z,13.80
2019-02-04T15:13:08.389Z,12.75
2019-02-04T15:16:27.747Z,13.15
2019-02-04T15:19:58.380Z,13.20
2019-02-04T15:23:14.800Z,14.33
2019-02-04T15:26:45.006Z,16.90
2019-02-04T15:30:10.433Z,17.90
2019-02-04T15:33:45.098Z,16.93
2019-02-04T15:36:59.423Z,15.38
2019-02-04T15:39:59.738Z,14.25
2019-02-04T15:43:26.023Z,12.47
2019-02-04T15:46:36.524Z,12.90
2019-02-04T15:50:12.422Z,14.63
2019-02-04T15:53:01.455Z,15.30
2019-02-04T15:55:50.591Z,15.85
2019-02-04T15:58:39.416Z,16.10
2019-02-04T16:01:28.251Z,14.95
2019-02-04T16:04:33.338Z,13.55
2019-02-04T16:07:23.937Z,19.12
2019-02-04T16:10:15.464Z,20.27
2019-02-04T16:13:03.843Z,23.20
2019-02-04T16:15:52.525Z,21.70
2019-02-04T16:18:40.967Z,20.25
2019-02-04T16:21:30.332Z,23.15
2019-02-04T16:24:18.859Z,21.80
2019-02-04T16:27:07.102Z,23.85
2019-02-04T16:29:55.997Z,23.10
2019-02-04T16:32:44.714Z,23.87
2019-02-04T16:35:33.554Z,26.17
2019-02-04T16:38:21.875Z,23.57
2019-02-04T16:41:10.304Z,23.25
2019-02-04T16:43:58.932Z,22.65
2019-02-04T16:46:48.231Z,21.73
2019-02-04T16:49:37.163Z,21.33
2019-02-04T16:52:25.833Z,23.83
2019-02-04T16:55:14.902Z,22.58
2019-02-04T16:58:03.740Z,22.37
2019-02-04T17:00:51.934Z,20.97
2019-02-04T17:03:41.116Z,22.50
2019-02-04T17:06:30.121Z,22.62
2019-02-04T17:09:19.196Z,23.65
2019-02-04T17:12:08.432Z,24.23
2019-02-04T17:14:57.122Z,25.90
2019-02-04T17:17:46.382Z,25.37
2019-02-04T17:20:35.097Z,23.12
2019-02-04T17:23:23.895Z,24.10
2019-02-04T17:26:12.107Z,22.50
2019-02-04T17:29:00.920Z,22.53
2019-02-04T17:31:49.819Z,19.60
2019-02-04T17:34:39.818Z,20.45
2019-02-04T17:37:28.701Z,23.07
2019-02-04T17:40:20.852Z,22.93
2019-02-04T17:43:09.490Z,23.30
2019-02-04T17:45:57.977Z,21.82
2019-02-04T17:48:46.729Z,26.20
2019-02-04T17:51:35.667Z,24.07
2019-02-04T17:54:24.288Z,25.95
2019-02-04T17:57:13.015Z,22.53
2019-02-04T18:00:01.707Z,25.25
2019-02-04T18:02:51.248Z,26.90
2019-02-04T18:05:40.447Z,22.67
2019-02-04T18:08:28.679Z,23.38
2019-02-04T18:11:17.643Z,23.80
2019-02-04T18:14:06.361Z,22.90
2019-02-04T18:16:55.344Z,28.50
2019-02-04T18:19:44.585Z,27.53
2019-02-04T18:22:33.445Z,24.95
2019-02-04T18:25:22.384Z,24.30
2019-02-04T18:28:10.798Z,25.00
2019-02-04T18:30:59.378Z,22.30
2019-02-04T18:33:48.112Z,22.00
2019-02-04T18:36:36.780Z,22.70
2019-02-04T18:39:26.132Z,22.62
2019-02-04T18:42:15.009Z,22.50
2019-02-04T18:45:05.532Z,23.15
2019-02-04T18:47:54.751Z,23.03
2019-02-04T18:50:44.478Z,24.90
2019-02-04T18:53:33.336Z,25.67
2019-02-04T18:56:22.966Z,26.35
2019-02-04T18:59:11.851Z,25.95
2019-02-04T19:02:00.611Z,29.70
2019-02-04T19:04:49.816Z,25.77
2019-02-04T19:07:38.328Z,25.60
2019-02-04T19:10:27.449Z,24.10
2019-02-04T19:13:16.468Z,25.88
2019-02-04T19:16:05.912Z,25.35
2019-02-04T19:18:54.548Z,26.05
2019-02-04T19:21:43.423Z,25.77
2019-02-04T19:24:32.040Z,25.32
2019-02-04T19:27:21.223Z,25.90
2019-02-04T19:30:23.193Z,28.07
2019-02-04T19:33:13.857Z,33.77
2019-02-04T19:36:03.060Z,33.95
2019-02-04T19:38:51.861Z,30.68
2019-02-04T19:41:41.268Z,30.17
2019-02-04T19:44:30.660Z,31.70
2019-02-04T19:47:19.098Z,30.92
2019-02-04T19:50:10.366Z,31.90
2019-02-04T19:52:59.327Z,30.15
2019-02-04T19:55:47.880Z,27.27
2019-02-04T19:58:36.510Z,32.93
2019-02-04T20:01:25.424Z,32.15
2019-02-04T20:04:15.426Z,30.60
2019-02-04T20:07:04.825Z,31.02
2019-02-04T20:09:54.724Z,33.20
2019-02-04T20:12:43.042Z,30.70
2019-02-04T20:15:32.485Z,28.70
2019-02-04T20:18:20.834Z,28.73
2019-02-04T20:21:10.090Z,32.07
2019-02-04T20:23:58.844Z,28.77
2019-02-04T20:26:47.650Z,27.73
2019-02-04T20:29:37.173Z,28.93
2019-02-04T20:32:26.520Z,29.07
2019-02-04T20:35:15.857Z,29.67
2019-02-04T20:38:04.954Z,29.42
2019-02-04T20:40:54.152Z,27.85
2019-02-04T20:43:43.184Z,28.12
2019-02-04T20:46:31.959Z,27.32
2019-02-04T20:49:20.700Z,27.90
2019-02-04T20:52:10.653Z,28.70
2019-02-04T20:54:59.452Z,29.72
2019-02-04T20:57:48.360Z,26.52
2019-02-04T21:00:37.433Z,26.95
2019-02-04T21:03:26.326Z,26.47
2019-02-04T21:06:15.142Z,24.15
2019-02-04T21:09:08.464Z,23.60
2019-02-04T21:11:57.278Z,19.95
2019-02-04T21:14:45.934Z,22.73
2019-02-04T21:17:34.284Z,21.90
2019-02-04T21:20:25.145Z,20.47
2019-02-04T21:23:13.717Z,23.35
2019-02-04T21:26:02.163Z,18.30
2019-02-04T21:28:50.942Z,20.52
2019-02-04T21:31:40.549Z,21.12
2019-02-04T21:34:29.664Z,22.40
2019-02-04T21:37:18.432Z,23.60
2019-02-04T21:40:09.285Z,23.75
2019-02-04T21:42:58.447Z,22.52
2019-02-04T21:45:47.670Z,21.77
2019-02-04T21:48:36.538Z,23.97
2019-02-04T21:51:25.875Z,24.40
2019-02-04T21:54:14.397Z,23.25
2019-02-04T21:57:02.965Z,24.67
2019-02-04T21:59:52.014Z,23.45
2019-02-04T22:02:41.317Z,23.87
2019-02-04T22:05:31.204Z,21.70
2019-02-04T22:08:19.643Z,24.55
2019-02-04T22:11:08.872Z,25.62
2019-02-04T22:13:57.823Z,25.25
2019-02-04T22:16:46.368Z,24.32
2019-02-04T22:19:35.186Z,25.25
2019-02-04T22:22:23.727Z,23.02
2019-02-04T22:25:19.806Z,24.87
2019-02-04T22:28:03.269Z,20.90
2019-02-04T22:30:53.101Z,22.77
2019-02-04T22:33:42.110Z,24.33
2019-02-04T22:36:31.197Z,23.77
2019-02-04T22:39:19.890Z,24.30
2019-02-04T22:42:08.449Z,25.60
2019-02-04T22:44:57.501Z,23.02
2019-02-04T22:47:46.400Z,21.20
2019-02-04T22:50:35.340Z,24.80
2019-02-04T22:53:23.846Z,21.57
2019-02-04T22:56:12.061Z,21.42
2019-02-04T22:59:01.632Z,23.73
2019-02-04T23:01:54.233Z,28.33
2019-02-04T23:04:43.705Z,22.77
2019-02-04T23:07:32.256Z,25.33
2019-02-04T23:10:21.645Z,23.25
2019-02-04T23:13:10.366Z,23.85
2019-02-04T23:15:59.309Z,23.42
2019-02-04T23:18:47.854Z,20.92
2019-02-04T23:21:36.335Z,21.37
2019-02-04T23:24:24.953Z,21.60
2019-02-04T23:27:13.740Z,22.90
2019-02-04T23:30:02.954Z,22.67
2019-02-04T23:32:51.980Z,23.10
2019-02-04T23:35:41.367Z,20.90
2019-02-04T23:38:30.253Z,22.30
2019-02-04T23:41:18.850Z,34.38
2019-02-04T23:44:07.956Z,30.68
2019-02-04T23:46:56.392Z,39.63
2019-02-04T23:49:44.933Z,68.55
2019-02-04T23:52:33.511Z,27.40
2019-02-04T23:55:22.545Z,41.50
2019-02-04T23:58:11.327Z,41.10
